House, New Mexico
Current Conditions -  °F | °C
As of 4:56 AM on Thursday 27 Nov 2014 (Local Time) from K4MR Reporting Station
Clear Clear  
Wind Chill: 17°   Ceiling: Unl
Heat Index: 25°   Visibility: 10mi
Dew Point: 19°   Wind: 7mph
Humidity: 78%   Direction: 140°SE
Pressure: 30.42"   Gusts: NA
Location:  34.65°N, 103.9°W
Report Text: K4MR 271156Z AUTO 14006KT 10SM CLR M04/M07 A3042 RMK AO2 SLP310 T10391073 11003 21044 50000
Loading
Personal Weather Stations






























Interactive Weather Map New forecast layout! Learn more

10-Day Weather Forecast

Advertisements
Track Severe Weather on mobile